createdAt,value
2019-03-01T00:01:40.710Z,100346.34
2019-03-01T00:04:19.228Z,100345.88
2019-03-01T00:06:57.310Z,100335.72
2019-03-01T00:09:41.912Z,100339.69
2019-03-01T00:12:14.778Z,100328.67
2019-03-01T00:15:03.798Z,100331.79
2019-03-01T00:17:51.500Z,100334.40
2019-03-01T00:20:43.637Z,100329.09
2019-03-01T00:23:44.886Z,100328.63
2019-03-01T00:26:20.162Z,100318.08
2019-03-01T00:28:59.978Z,100324.65
2019-03-01T00:32:04.119Z,100318.91
2019-03-01T00:34:55.870Z,100313.56
2019-03-01T00:37:34.322Z,100301.66
2019-03-01T00:40:23.025Z,100302.50
2019-03-01T00:43:01.495Z,100303.39
2019-03-01T00:45:30.957Z,100304.66
2019-03-01T00:48:00.438Z,100306.39
2019-03-01T00:50:29.889Z,100304.58
2019-03-01T00:52:59.336Z,100297.52
2019-03-01T00:55:28.810Z,100290.02
2019-03-01T00:57:58.282Z,100294.83
2019-03-01T01:00:42.885Z,100290.44
2019-03-01T01:03:12.370Z,100286.04
2019-03-01T01:05:42.903Z,100282.52
2019-03-01T01:08:12.382Z,100284.73
2019-03-01T01:10:41.825Z,100280.77
2019-03-01T01:13:11.333Z,100278.55
2019-03-01T01:15:40.838Z,100272.77
2019-03-01T01:18:10.320Z,100276.30
2019-03-01T01:20:39.893Z,100277.20
2019-03-01T01:23:09.369Z,100274.09
2019-03-01T01:25:38.841Z,100272.35
2019-03-01T01:28:09.198Z,100260.94
2019-03-01T01:30:39.753Z,100254.33
2019-03-01T01:33:09.187Z,100250.83
2019-03-01T01:35:39.817Z,100255.23
2019-03-01T01:38:09.260Z,100254.33
2019-03-01T01:40:38.967Z,100250.78
2019-03-01T01:43:08.411Z,100249.88
2019-03-01T01:45:37.977Z,100245.47
2019-03-01T01:48:07.431Z,100249.38
2019-03-01T01:50:36.899Z,100250.68
2019-03-01T01:53:06.963Z,100241.84
2019-03-01T01:55:36.475Z,100251.10
2019-03-01T01:58:05.944Z,100244.92
2019-03-01T02:00:35.453Z,100242.75
2019-03-01T02:03:05.003Z,100237.46
2019-03-01T02:05:34.519Z,100242.34
2019-03-01T02:08:03.994Z,100232.19
2019-03-01T02:10:33.558Z,100233.50
2019-03-01T02:13:03.057Z,100235.25
2019-03-01T02:15:32.502Z,100228.20
2019-03-01T02:18:02.198Z,100222.05
2019-03-01T02:20:31.975Z,100222.95
2019-03-01T02:23:01.428Z,100226.50
2019-03-01T02:25:31.875Z,100221.67
2019-03-01T02:28:01.423Z,100221.26
2019-03-01T02:30:34.068Z,100216.40
2019-03-01T02:33:03.581Z,100215.06
2019-03-01T02:35:33.087Z,100211.53
2019-03-01T02:38:02.587Z,100207.56
2019-03-01T02:40:36.044Z,100208.89
2019-03-01T02:43:06.480Z,100202.27
2019-03-01T02:45:35.912Z,100204.02
2019-03-01T02:48:05.493Z,100199.15
2019-03-01T02:50:34.929Z,100200.47
2019-03-01T02:53:04.617Z,100200.03
2019-03-01T02:55:34.237Z,100195.16
2019-03-01T02:58:04.836Z,100194.28
2019-03-01T03:00:34.408Z,100182.84
2019-03-01T03:03:03.955Z,100183.28
2019-03-01T03:05:35.075Z,100186.39
2019-03-01T03:08:06.394Z,100186.39
2019-03-01T03:10:35.829Z,100187.30
2019-03-01T03:13:07.264Z,100181.60
2019-03-01T03:15:41.314Z,100183.35
2019-03-01T03:18:10.869Z,100183.39
2019-03-01T03:20:40.309Z,100179.86
2019-03-01T03:23:10.773Z,100180.77
2019-03-01T03:25:40.263Z,100180.33
2019-03-01T03:28:09.858Z,100188.69
2019-03-01T03:30:39.362Z,100181.22
2019-03-01T03:33:09.234Z,100177.69
2019-03-01T03:35:38.678Z,100179.91
2019-03-01T03:38:08.144Z,100177.73
2019-03-01T03:40:37.644Z,100171.55
2019-03-01T03:43:07.283Z,100176.84
2019-03-01T03:45:36.762Z,100177.70
2019-03-01T03:48:06.749Z,100179.48
2019-03-01T03:50:36.227Z,100174.16
2019-03-01T03:53:05.669Z,100175.95
2019-03-01T03:55:35.230Z,100172.45
2019-03-01T03:58:04.658Z,100176.84
2019-03-01T04:00:34.103Z,100175.95
2019-03-01T04:03:04.689Z,100177.73
2019-03-01T04:05:34.244Z,100170.23
2019-03-01T04:08:04.124Z,100166.27
2019-03-01T04:10:34.043Z,100165.36
2019-03-01T04:13:04.540Z,100167.12
2019-03-01T04:15:34.036Z,100167.12
2019-03-01T04:18:03.498Z,100163.57
2019-03-01T04:20:32.960Z,100165.36
2019-03-01T04:23:02.472Z,100163.56
2019-03-01T04:25:31.967Z,100165.36
2019-03-01T04:28:01.403Z,100166.21
2019-03-01T04:30:30.969Z,100168.84
2019-03-01T04:33:00.413Z,100167.95
2019-03-01T04:35:29.884Z,100167.95
2019-03-01T04:37:59.322Z,100169.27
2019-03-01T04:40:28.792Z,100168.38
2019-03-01T04:42:58.238Z,100157.33
2019-03-01T04:45:27.787Z,100163.98
2019-03-01T04:47:57.237Z,100154.25
2019-03-01T04:50:26.735Z,100148.06
2019-03-01T04:52:56.208Z,100145.41
2019-03-01T04:55:26.826Z,100141.82
2019-03-01T04:57:56.335Z,100139.16
2019-03-01T05:00:26.120Z,100147.95
2019-03-01T05:02:55.739Z,100148.41
2019-03-01T05:05:25.173Z,100147.52
2019-03-01T05:07:54.662Z,100151.06
2019-03-01T05:10:24.181Z,100151.53
2019-03-01T05:12:53.648Z,100151.97
2019-03-01T05:15:24.334Z,100150.17
2019-03-01T05:17:53.806Z,100144.88
2019-03-01T05:20:23.292Z,100140.90
2019-03-01T05:22:52.801Z,100137.78
2019-03-01T05:25:22.249Z,100135.56
2019-03-01T05:27:51.729Z,100132.96
2019-03-01T05:30:21.228Z,100136.47
2019-03-01T05:32:50.797Z,100133.39
2019-03-01T05:35:20.320Z,100132.08
2019-03-01T05:37:49.794Z,100133.39
2019-03-01T05:40:19.275Z,100128.11
2019-03-01T05:42:49.652Z,100129.02
2019-03-01T05:45:24.103Z,100131.67
2019-03-01T05:47:53.552Z,100133.03
2019-03-01T05:50:23.028Z,100141.44
2019-03-01T05:52:53.449Z,100143.67
2019-03-01T05:55:22.930Z,100137.06
2019-03-01T05:58:21.107Z,100141.50
2019-03-01T06:00:52.089Z,100143.30
2019-03-01T06:03:42.502Z,100141.98
2019-03-01T06:06:26.818Z,100146.38
2019-03-01T06:09:11.398Z,100148.59
2019-03-01T06:11:52.706Z,100145.05
2019-03-01T06:14:25.318Z,100148.97
2019-03-01T06:17:00.776Z,100154.25
2019-03-01T06:19:44.865Z,100151.19
2019-03-01T06:22:17.382Z,100149.85
2019-03-01T06:24:59.059Z,100152.93
2019-03-01T06:28:06.251Z,100148.54
2019-03-01T06:30:55.191Z,100149.88
2019-03-01T06:33:27.723Z,100149.88
2019-03-01T06:36:16.671Z,100148.06
2019-03-01T06:39:05.331Z,100151.56
2019-03-01T06:41:46.877Z,100149.81
2019-03-01T06:44:25.339Z,100159.11
2019-03-01T06:47:24.902Z,100148.96
2019-03-01T06:49:56.081Z,100159.13
2019-03-01T06:52:25.483Z,100152.98
2019-03-01T06:54:55.122Z,100153.88
2019-03-01T06:57:24.570Z,100153.89
2019-03-01T06:59:54.100Z,100152.56
2019-03-01T07:02:25.180Z,100154.78
2019-03-01T07:04:54.676Z,100159.22
2019-03-01T07:07:24.117Z,100160.08
2019-03-01T07:09:53.604Z,100157.44
2019-03-01T07:12:23.074Z,100165.84
2019-03-01T07:14:52.556Z,100155.69
2019-03-01T07:17:21.996Z,100153.05
2019-03-01T07:19:51.484Z,100157.02
2019-03-01T07:22:21.283Z,100159.27
2019-03-01T07:24:50.771Z,100158.80
2019-03-01T07:27:20.210Z,100163.63
2019-03-01T07:29:49.706Z,100167.63
2019-03-01T07:32:20.853Z,100165.89
2019-03-01T07:34:50.355Z,100171.19
2019-03-01T07:37:21.858Z,100169.02
2019-03-01T07:39:51.243Z,100180.03
2019-03-01T07:42:20.661Z,100177.84
2019-03-01T07:47:18.638Z,100180.96
2019-03-01T07:49:48.113Z,100191.55
2019-03-01T07:52:17.549Z,100188.47
2019-03-01T07:54:49.406Z,100197.27
2019-03-01T07:57:18.200Z,100191.12
2019-03-01T07:59:47.671Z,100194.66
2019-03-01T08:02:17.111Z,100199.48
2019-03-01T08:04:46.589Z,100197.31
2019-03-01T08:07:16.080Z,100200.86
2019-03-01T08:09:45.719Z,100196.00
2019-03-01T08:12:15.304Z,100196.00
2019-03-01T08:14:44.778Z,100204.87
2019-03-01T08:17:14.223Z,100203.08
2019-03-01T08:19:45.590Z,100213.28
2019-03-01T08:22:14.849Z,100207.56
2019-03-01T08:24:46.635Z,100211.06
2019-03-01T08:27:15.528Z,100212.34
2019-03-01T08:29:45.000Z,100212.77
2019-03-01T08:32:15.566Z,100214.95
2019-03-01T08:34:45.064Z,100220.67
2019-03-01T08:37:17.438Z,100220.23
2019-03-01T08:39:45.732Z,100216.73
2019-03-01T08:42:15.238Z,100214.98
2019-03-01T08:44:44.786Z,100213.23
2019-03-01T08:47:14.285Z,100214.56
2019-03-01T08:49:43.892Z,100218.53
2019-03-01T08:52:13.455Z,100216.73
2019-03-01T08:54:42.980Z,100222.04
2019-03-01T08:57:12.743Z,100223.36
2019-03-01T08:59:42.221Z,100215.89
2019-03-01T09:02:12.022Z,100217.21
2019-03-01T09:04:50.512Z,100227.33
2019-03-01T09:07:13.781Z,100219.81
2019-03-01T09:09:43.247Z,100229.49
2019-03-01T09:12:12.824Z,100228.48
2019-03-01T09:14:42.370Z,100237.25
2019-03-01T09:17:11.806Z,100231.37
2019-03-01T09:19:41.286Z,100233.45
2019-03-01T09:22:10.799Z,100239.97
2019-03-01T09:24:41.364Z,100236.89
2019-03-01T09:27:10.936Z,100241.76
2019-03-01T09:29:42.080Z,100244.83
2019-03-01T09:32:11.823Z,100255.34
2019-03-01T09:34:41.366Z,100244.25
2019-03-01T09:37:11.005Z,100242.94
2019-03-01T09:39:40.465Z,100251.30
2019-03-01T09:42:12.451Z,100250.34
2019-03-01T09:44:41.159Z,100249.55
2019-03-01T09:47:10.713Z,100250.04
2019-03-01T09:49:40.198Z,100256.63
2019-03-01T09:52:10.102Z,100249.95
2019-03-01T09:54:40.447Z,100257.37
2019-03-01T09:57:12.471Z,100256.52
2019-03-01T09:59:41.108Z,100260.20
2019-03-01T10:02:10.556Z,100260.20
2019-03-01T10:04:40.093Z,100261.50
2019-03-01T10:07:09.548Z,100273.81
2019-03-01T10:09:39.040Z,100273.80
2019-03-01T10:12:08.536Z,100275.02
2019-03-01T10:14:38.178Z,100286.06
2019-03-01T10:17:08.459Z,100294.33
2019-03-01T10:19:37.897Z,100299.41
2019-03-01T10:22:07.708Z,100297.47
2019-03-01T10:24:37.180Z,100305.65
2019-03-01T10:27:06.724Z,100304.64
2019-03-01T10:29:36.303Z,100310.69
2019-03-01T10:32:06.130Z,100315.48
2019-03-01T10:34:35.557Z,100307.27
2019-03-01T10:37:05.006Z,100310.86
2019-03-01T10:39:34.550Z,100313.94
2019-03-01T10:42:04.624Z,100317.88
2019-03-01T10:44:34.086Z,100321.13
2019-03-01T10:47:04.517Z,100320.41
2019-03-01T10:49:34.029Z,100320.86
2019-03-01T10:52:03.481Z,100324.83
2019-03-01T10:54:32.942Z,100322.70
2019-03-01T10:57:02.433Z,100334.20
2019-03-01T10:59:31.890Z,100333.14
2019-03-01T11:02:01.371Z,100334.23
2019-03-01T11:04:30.853Z,100330.27
2019-03-01T11:07:00.447Z,100332.53
2019-03-01T11:09:29.912Z,100327.37
2019-03-01T11:11:59.401Z,100325.42
2019-03-01T11:14:28.931Z,100326.92
2019-03-01T11:16:58.436Z,100316.91
2019-03-01T11:19:27.879Z,100311.73
2019-03-01T11:21:57.346Z,100319.43
2019-03-01T11:24:26.847Z,100309.03
2019-03-01T11:26:56.414Z,100313.14
2019-03-01T11:29:25.863Z,100325.14
2019-03-01T11:31:55.335Z,100331.17
2019-03-01T11:34:24.827Z,100335.54
2019-03-01T11:36:54.379Z,100333.34
2019-03-01T11:39:24.147Z,100339.95
2019-03-01T11:41:53.650Z,100335.20
2019-03-01T11:44:23.197Z,100338.48
2019-03-01T11:46:52.721Z,100336.70
2019-03-01T11:49:22.186Z,100346.77
2019-03-01T11:51:51.700Z,100340.98
2019-03-01T11:54:21.206Z,100348.16
2019-03-01T11:56:50.693Z,100347.67
2019-03-01T11:59:20.126Z,100352.01
2019-03-01T12:01:49.582Z,100352.35
2019-03-01T12:04:19.061Z,100350.03
2019-03-01T12:06:49.536Z,100361.31
2019-03-01T12:09:19.029Z,100367.67
2019-03-01T12:11:48.531Z,100372.32
2019-03-01T12:14:18.118Z,100371.36
2019-03-01T12:16:47.591Z,100377.02
2019-03-01T12:19:17.123Z,100381.81
2019-03-01T12:21:46.601Z,100389.02
2019-03-01T12:24:16.117Z,100382.91
2019-03-01T12:26:45.552Z,100387.13
2019-03-01T12:29:15.102Z,100392.33
2019-03-01T12:31:44.570Z,100397.97
2019-03-01T12:34:14.098Z,100418.75
2019-03-01T12:36:43.576Z,100413.67
2019-03-01T12:39:13.182Z,100415.66
2019-03-01T12:41:42.815Z,100426.00
2019-03-01T12:44:12.255Z,100415.20
2019-03-01T12:46:41.742Z,100420.97
2019-03-01T12:49:11.191Z,100434.26
2019-03-01T12:51:42.394Z,100435.25
2019-03-01T12:54:11.951Z,100440.34
2019-03-01T12:56:42.430Z,100442.50
2019-03-01T12:59:12.005Z,100451.11
2019-03-01T13:01:41.844Z,100447.45
2019-03-01T13:04:11.787Z,100457.90
2019-03-01T13:06:41.271Z,100454.15
2019-03-01T13:09:13.650Z,100453.70
2019-03-01T13:11:43.091Z,100465.11
2019-03-01T13:14:12.629Z,100464.19
2019-03-01T13:16:42.303Z,100464.63
2019-03-01T13:19:11.820Z,100463.37
2019-03-01T13:21:42.262Z,100473.77
2019-03-01T13:24:12.666Z,100484.13
2019-03-01T13:26:43.588Z,100476.47
2019-03-01T13:29:15.201Z,100484.28
2019-03-01T13:31:47.168Z,100485.23
2019-03-01T13:34:16.767Z,100485.66
2019-03-01T13:36:46.220Z,100490.14
2019-03-01T13:39:15.703Z,100492.20
2019-03-01T13:41:45.284Z,100498.03
2019-03-01T13:44:14.769Z,100489.59
2019-03-01T13:46:44.201Z,100492.77
2019-03-01T13:49:13.744Z,100501.75
2019-03-01T13:51:43.246Z,100498.30
2019-03-01T13:54:12.781Z,100502.70
2019-03-01T13:56:42.388Z,100502.94
2019-03-01T13:59:12.065Z,100506.31
2019-03-01T14:01:42.087Z,100510.27
2019-03-01T14:04:11.642Z,100512.78
2019-03-01T14:06:41.091Z,100512.78
2019-03-01T14:09:13.089Z,100515.95
2019-03-01T14:11:42.596Z,100516.40
2019-03-01T14:14:12.075Z,100522.48
2019-03-01T14:16:41.647Z,100520.83
2019-03-01T14:19:11.143Z,100529.23
2019-03-01T14:21:40.614Z,100530.52
2019-03-01T14:24:10.096Z,100533.18
2019-03-01T14:26:39.549Z,100539.48
2019-03-01T14:29:08.968Z,100536.75
2019-03-01T14:31:39.735Z,100540.45
2019-03-01T14:34:11.611Z,100547.65
2019-03-01T14:36:43.118Z,100547.62
2019-03-01T14:39:16.791Z,100554.47
2019-03-01T14:41:46.850Z,100548.69
2019-03-01T14:44:16.519Z,100555.95
2019-03-01T14:46:46.764Z,100546.91
2019-03-01T14:49:18.452Z,100558.13
2019-03-01T14:51:48.031Z,100560.30
2019-03-01T14:54:18.016Z,100565.70
2019-03-01T14:56:48.282Z,100563.90
2019-03-01T14:59:38.051Z,100558.51
2019-03-01T15:02:19.011Z,100560.14
2019-03-01T15:04:48.877Z,100563.74
2019-03-01T15:07:19.681Z,100554.95
2019-03-01T15:09:49.338Z,100566.79
2019-03-01T15:12:21.110Z,100567.50
2019-03-01T15:14:50.938Z,100565.66
2019-03-01T15:17:21.655Z,100566.33
2019-03-01T15:19:52.827Z,100573.74
2019-03-01T15:22:22.338Z,100574.16
2019-03-01T15:24:52.430Z,100578.55
2019-03-01T15:27:23.205Z,100584.09
2019-03-01T15:29:53.061Z,100587.56
2019-03-01T15:32:23.154Z,100596.11
2019-03-01T15:34:53.293Z,100594.66
2019-03-01T15:37:22.914Z,100595.66
2019-03-01T15:39:54.261Z,100598.15
2019-03-01T15:42:24.174Z,100593.34
2019-03-01T15:44:54.995Z,100591.20
2019-03-01T15:47:26.621Z,100590.92
2019-03-01T15:49:57.537Z,100596.73
2019-03-01T15:52:29.057Z,100604.77
2019-03-01T15:54:58.599Z,100604.55
2019-03-01T15:57:28.233Z,100604.38
2019-03-01T15:59:58.651Z,100621.45
2019-03-01T16:02:28.127Z,100622.23
2019-03-01T16:04:57.568Z,100634.08
2019-03-01T16:07:29.051Z,100634.45
2019-03-01T16:10:01.280Z,100644.52
2019-03-01T16:12:32.238Z,100651.41
2019-03-01T16:15:01.837Z,100652.34
2019-03-01T16:17:32.625Z,100650.88
2019-03-01T16:20:02.084Z,100648.96
2019-03-01T16:22:32.592Z,100649.00
2019-03-01T16:25:02.091Z,100657.75
2019-03-01T16:27:31.642Z,100662.14
2019-03-01T16:30:01.139Z,100662.71
2019-03-01T16:32:30.676Z,100656.52
2019-03-01T16:35:00.232Z,100663.46
2019-03-01T16:37:30.406Z,100664.89
2019-03-01T16:40:01.461Z,100670.22
2019-03-01T16:42:38.393Z,100676.27
2019-03-01T16:45:03.834Z,100667.52
2019-03-01T16:47:33.697Z,100672.35
2019-03-01T16:50:06.509Z,100675.10
2019-03-01T16:52:35.278Z,100679.05
2019-03-01T16:55:07.478Z,100672.59
2019-03-01T16:57:37.186Z,100675.67
2019-03-01T17:00:14.674Z,100675.96
2019-03-01T17:02:44.597Z,100676.71
2019-03-01T17:05:15.451Z,100681.89
2019-03-01T17:07:46.603Z,100687.59
2019-03-01T17:10:18.553Z,100696.50
2019-03-01T17:12:48.827Z,100698.99
2019-03-01T17:15:23.741Z,100700.02
2019-03-01T17:17:53.381Z,100700.99
2019-03-01T17:20:22.995Z,100699.41
2019-03-01T17:22:52.949Z,100709.64
2019-03-01T17:25:23.547Z,100715.46
2019-03-01T17:27:55.013Z,100716.97
2019-03-01T17:30:26.519Z,100711.09
2019-03-01T17:32:56.073Z,100720.76
2019-03-01T17:35:25.717Z,100724.89
2019-03-01T17:37:55.788Z,100730.72
2019-03-01T17:40:25.554Z,100734.41
2019-03-01T17:42:56.676Z,100736.62
2019-03-01T17:45:27.060Z,100742.48
2019-03-01T17:47:57.002Z,100746.88
2019-03-01T17:50:26.793Z,100750.34
2019-03-01T17:52:56.217Z,100744.96
2019-03-01T17:55:27.954Z,100743.80
2019-03-01T17:57:57.631Z,100751.45
2019-03-01T18:00:36.539Z,100757.58
2019-03-01T18:03:06.098Z,100753.15
2019-03-01T18:05:40.214Z,100753.67
2019-03-01T18:08:08.182Z,100754.42
2019-03-01T18:10:37.790Z,100759.94
2019-03-01T18:13:07.856Z,100762.37
2019-03-01T18:15:37.873Z,100766.27
2019-03-01T18:18:08.983Z,100766.27
2019-03-01T18:20:39.387Z,100766.27
2019-03-01T18:23:08.881Z,100777.25
2019-03-01T18:25:38.525Z,100776.75
2019-03-01T18:28:08.073Z,100784.31
2019-03-01T18:30:37.732Z,100778.11
2019-03-01T18:33:08.067Z,100771.20
2019-03-01T18:35:37.584Z,100783.23
2019-03-01T18:38:07.089Z,100778.34
2019-03-01T18:40:37.986Z,100782.41
2019-03-01T18:43:09.826Z,100789.47
2019-03-01T18:45:41.811Z,100782.86
2019-03-01T18:48:09.911Z,100788.98
2019-03-01T18:50:40.136Z,100792.19
2019-03-01T18:53:09.745Z,100793.70
2019-03-01T18:55:39.286Z,100798.21
2019-03-01T18:58:10.601Z,100792.55
2019-03-01T19:00:48.107Z,100800.17
2019-03-01T19:03:17.593Z,100809.09
2019-03-01T19:05:47.058Z,100812.81
2019-03-01T19:08:16.789Z,100809.52
2019-03-01T19:10:53.985Z,100800.82
2019-03-01T19:13:17.429Z,100808.68
2019-03-01T19:15:48.034Z,100798.61
2019-03-01T19:18:18.183Z,100801.23
2019-03-01T19:20:50.678Z,100806.09
2019-03-01T19:23:20.169Z,100800.86
2019-03-01T19:25:49.717Z,100800.48
2019-03-01T19:28:19.173Z,100801.42
2019-03-01T19:30:50.521Z,100812.89
2019-03-01T19:33:20.196Z,100803.61
2019-03-01T19:35:49.711Z,100801.73
2019-03-01T19:38:21.852Z,100810.90
2019-03-01T19:40:50.370Z,100807.33
2019-03-01T19:43:19.845Z,100809.95
2019-03-01T19:45:49.349Z,100807.29
2019-03-01T19:48:19.943Z,100808.94
2019-03-01T19:50:49.516Z,100808.38
2019-03-01T19:53:21.667Z,100815.37
2019-03-01T19:55:51.722Z,100819.31
2019-03-01T19:58:21.212Z,100819.84
2019-03-01T20:00:51.032Z,100812.41
2019-03-01T20:03:20.508Z,100820.82
2019-03-01T20:05:50.006Z,100816.39
2019-03-01T20:08:19.581Z,100807.55
2019-03-01T20:10:51.042Z,100807.55
2019-03-01T20:13:20.698Z,100815.07
2019-03-01T20:15:50.684Z,100817.25
2019-03-01T20:18:20.180Z,100815.82
2019-03-01T20:20:49.645Z,100821.49
2019-03-01T20:23:20.321Z,100817.80
2019-03-01T20:25:51.064Z,100819.08
2019-03-01T20:28:21.136Z,100812.62
2019-03-01T20:30:50.942Z,100819.61
2019-03-01T20:33:23.513Z,100817.55
2019-03-01T20:35:52.084Z,100822.10
2019-03-01T20:38:21.625Z,100815.52
2019-03-01T20:40:51.100Z,100816.84
2019-03-01T20:43:20.652Z,100815.07
2019-03-01T20:45:50.144Z,100819.96
2019-03-01T20:48:20.053Z,100822.67
2019-03-01T20:50:51.042Z,100829.73
2019-03-01T20:53:21.333Z,100834.06
2019-03-01T20:55:51.110Z,100828.60
2019-03-01T20:58:22.090Z,100835.62
2019-03-01T21:00:51.724Z,100831.23
2019-03-01T21:03:24.089Z,100836.13
2019-03-01T21:05:52.405Z,100830.97
2019-03-01T21:08:21.873Z,100837.63
2019-03-01T21:10:51.319Z,100839.40
2019-03-01T21:13:20.801Z,100834.52
2019-03-01T21:15:50.288Z,100836.31
2019-03-01T21:18:19.768Z,100841.09
2019-03-01T21:20:50.614Z,100843.23
2019-03-01T21:23:20.384Z,100842.86
2019-03-01T21:25:49.901Z,100842.94
2019-03-01T21:28:19.372Z,100845.98
2019-03-01T21:30:49.235Z,100845.53
2019-03-01T21:33:18.712Z,100846.84
2019-03-01T21:35:52.019Z,100847.30
2019-03-01T21:38:22.562Z,100846.31
2019-03-01T21:40:52.285Z,100839.73
2019-03-01T21:43:22.729Z,100844.13
2019-03-01T21:45:55.438Z,100839.66
2019-03-01T21:48:25.276Z,100839.70
2019-03-01T21:50:55.702Z,100836.69
2019-03-01T21:53:25.407Z,100826.24
2019-03-01T21:55:54.811Z,100829.92
2019-03-01T21:58:24.300Z,100832.22
2019-03-01T22:00:53.733Z,100832.30
2019-03-01T22:03:24.821Z,100839.41
2019-03-01T22:05:54.358Z,100838.09
2019-03-01T22:08:23.804Z,100842.48
2019-03-01T22:10:53.320Z,100840.31
2019-03-01T22:13:22.805Z,100845.20
2019-03-01T22:15:52.381Z,100839.41
2019-03-01T22:18:23.752Z,100843.73
2019-03-01T22:20:53.086Z,100845.88
2019-03-01T22:23:22.538Z,100840.53
2019-03-01T22:25:52.971Z,100837.03
2019-03-01T22:28:22.456Z,100841.81
2019-03-01T22:30:52.006Z,100841.36
2019-03-01T22:33:22.081Z,100840.12
2019-03-01T22:35:51.777Z,100847.56
2019-03-01T22:38:22.776Z,100846.73
2019-03-01T22:40:52.210Z,100840.12
2019-03-01T22:43:22.494Z,100845.72
2019-03-01T22:45:52.818Z,100844.33
2019-03-01T22:48:22.252Z,100845.56
2019-03-01T22:50:51.745Z,100855.64
2019-03-01T22:53:22.258Z,100848.08
2019-03-01T22:55:51.721Z,100843.98
2019-03-01T22:58:21.192Z,100841.72
2019-03-01T23:01:03.575Z,100847.52
2019-03-01T23:03:33.242Z,100849.23
2019-03-01T23:06:02.714Z,100852.02
2019-03-01T23:08:35.528Z,100847.97
2019-03-01T23:11:04.555Z,100860.55
2019-03-01T23:13:34.052Z,100853.07
2019-03-01T23:16:04.503Z,100861.13
2019-03-01T23:18:33.970Z,100864.73
2019-03-01T23:21:04.317Z,100870.00
2019-03-01T23:23:33.799Z,100875.10
2019-03-01T23:26:03.243Z,100868.86
2019-03-01T23:28:32.795Z,100870.17
2019-03-01T23:31:03.622Z,100869.77
2019-03-01T23:33:33.950Z,100872.97
2019-03-01T23:36:04.324Z,100860.26
2019-03-01T23:38:33.786Z,100864.58
2019-03-01T23:41:03.260Z,100870.09
2019-03-01T23:43:32.736Z,100873.17
2019-03-01T23:46:02.174Z,100869.77
2019-03-01T23:48:31.706Z,100872.92
2019-03-01T23:51:01.147Z,100872.55
2019-03-01T23:53:30.977Z,100868.94
2019-03-01T23:56:01.879Z,100868.52
2019-03-01T23:58:31.310Z,100875.03
